Time;durP1;ratioP1;P1;durP2;ratioP2;P2;SDS_P1;SDS_P2;PMS_P1;PMS_P2;Temp;Humidity;BMP_temperature;BMP_pressure;BME280_temperature;BME280_humidity;BME280_pressure;Samples;Min_cycle;Max_cycle;Signal;HPM_P1;HPM_P2
2022/09/26 00:01:08;;;;;;;;;;;12.10;99.90;;;;;;4986120;28;19925;-76
2022/09/26 00:03:34;;;;;;;;;;;12.10;99.90;;;;;;4985262;28;19930;-76
2022/09/26 00:06:00;;;;;;;;;;;12.00;99.90;;;;;;4986873;28;19933;-81
2022/09/26 00:08:26;;;;;;;;;;;12.10;99.90;;;;;;4989845;28;19929;-76
2022/09/26 00:10:57;;;;;;;;;;;12.10;99.90;;;;;;4988800;28;20522;-76
2022/09/26 00:13:22;;;;;;;;;;;12.10;99.90;;;;;;4989461;28;19988;-76
2022/09/26 00:15:48;;;;;;;;;;;12.10;99.90;;;;;;4988995;28;19925;-79
2022/09/26 00:18:13;;;;;;;;;;;12.10;99.90;;;;;;4989153;28;19934;-76
2022/09/26 00:20:39;;;;;;;;;;;12.10;99.90;;;;;;5003150;28;19941;-78
2022/09/26 00:23:04;;;;;;;;;;;12.10;99.90;;;;;;5004408;28;19972;-77
2022/09/26 00:25:30;;;;;;;;;;;12.10;99.90;;;;;;4988760;28;20428;-79
2022/09/26 00:27:55;;;;;;;;;;;12.10;99.90;;;;;;4989281;28;19975;-77
2022/09/26 00:30:21;;;;;;;;;;;12.10;99.90;;;;;;4988751;28;20320;-78
2022/09/26 00:32:46;;;;;;;;;;;12.10;99.90;;;;;;5003484;28;19926;-77
2022/09/26 00:35:11;;;;;;;;;;;12.10;99.90;;;;;;4988105;28;19930;-76
2022/09/26 00:37:37;;;;;;;;;;;12.10;99.90;;;;;;4988850;28;20477;-77
2022/09/26 00:40:03;;;;;;;;;;;12.10;99.90;;;;;;4988807;28;19925;-79
2022/09/26 00:42:28;;;;;;;;;;;12.10;99.90;;;;;;4988977;28;20654;-77
2022/09/26 00:44:55;;;;;;;;;;;12.10;99.90;;;;;;4988158;28;19926;-77
2022/09/26 00:47:32;;;;;;;;;;;12.10;99.90;;;;;;4988574;28;19926;-76
2022/09/26 00:50:00;;;;;;;;;;;12.10;99.90;;;;;;4970394;28;19926;-76
2022/09/26 00:52:31;;;;;;;;;;;12.10;99.90;;;;;;4987961;28;19948;-77
2022/09/26 00:54:58;;;;;;;;;;;12.10;99.90;;;;;;4988823;28;19926;-78
2022/09/26 00:57:27;;;;;;;;;;;12.10;99.90;;;;;;4988314;28;19930;-80
2022/09/26 00:59:55;;;;;;;;;;;12.10;99.90;;;;;;4987952;28;19921;-77
2022/09/26 01:02:20;;;;;;;;;;;12.10;99.90;;;;;;4988263;28;19932;-76
2022/09/26 01:04:46;;;;;;;;;;;12.10;99.90;;;;;;4985523;28;20305;-76
2022/09/26 01:07:19;;;;;;;;;;;12.10;99.90;;;;;;5003011;28;19989;-79
2022/09/26 01:12:24;;;;;;;;;;;12.10;99.90;;;;;;4967714;23;19926;-77
2022/09/26 01:14:51;;;;;;;;;;;12.20;99.90;;;;;;4968789;28;19936;-76
2022/09/26 01:17:16;;;;;;;;;;;12.10;99.90;;;;;;4968288;28;19926;-76
2022/09/26 01:19:41;;;;;;;;;;;12.10;99.90;;;;;;4966318;28;19933;-77
2022/09/26 01:22:25;;;;;;;;;;;12.10;99.90;;;;;;4968443;28;20384;-77
2022/09/26 01:25:09;;;;;;;;;;;12.10;99.90;;;;;;4967975;28;19930;-76
2022/09/26 01:27:42;;;;;;;;;;;12.10;99.90;;;;;;4982957;28;19930;-77
2022/09/26 01:30:09;;;;;;;;;;;12.10;99.90;;;;;;4968412;28;19932;-77
2022/09/26 01:32:49;;;;;;;;;;;12.10;99.90;;;;;;4967807;28;19933;-76
2022/09/26 01:35:21;;;;;;;;;;;12.00;99.90;;;;;;4967578;28;19933;-77
2022/09/26 01:37:53;;;;;;;;;;;12.10;99.90;;;;;;4967953;28;19930;-76
2022/09/26 01:40:37;;;;;;;;;;;12.10;99.90;;;;;;4967555;28;19930;-77
2022/09/26 01:43:17;;;;;;;;;;;12.00;99.90;;;;;;4968579;28;20020;-76
2022/09/26 01:46:01;;;;;;;;;;;12.00;99.90;;;;;;4968193;28;19926;-76
2022/09/26 01:48:31;;;;;;;;;;;12.00;99.90;;;;;;4968795;28;20477;-76
2022/09/26 01:51:00;;;;;;;;;;;12.00;99.90;;;;;;4968029;28;19926;-77
2022/09/26 01:53:40;;;;;;;;;;;12.00;99.90;;;;;;4966958;28;19926;-75
2022/09/26 01:56:09;;;;;;;;;;;12.00;99.90;;;;;;4966796;28;19926;-79
2022/09/26 01:58:38;;;;;;;;;;;12.00;99.90;;;;;;4968125;28;19930;-76
2022/09/26 02:01:07;;;;;;;;;;;12.00;99.90;;;;;;4968429;28;19926;-79
2022/09/26 02:03:39;;;;;;;;;;;12.00;99.90;;;;;;4967721;28;19949;-76
2022/09/26 02:06:08;;;;;;;;;;;12.00;99.90;;;;;;4967537;28;19976;-77
2022/09/26 02:08:38;;;;;;;;;;;12.00;99.90;;;;;;4967376;28;19926;-77
2022/09/26 02:11:11;;;;;;;;;;;12.00;99.90;;;;;;4968082;28;20580;-76
2022/09/26 02:13:56;;;;;;;;;;;12.00;99.90;;;;;;4967716;28;19926;-77
2022/09/26 02:16:28;;;;;;;;;;;12.00;99.90;;;;;;4957019;28;19932;-77
2022/09/26 02:18:59;;;;;;;;;;;12.00;99.90;;;;;;4966589;28;19938;-77
2022/09/26 02:21:25;;;;;;;;;;;11.90;99.90;;;;;;4968000;28;20030;-77
2022/09/26 02:23:52;;;;;;;;;;;12.00;99.90;;;;;;4967569;28;20349;-77
2022/09/26 02:26:17;;;;;;;;;;;12.00;99.90;;;;;;4967406;28;19926;-77
2022/09/26 02:28:43;;;;;;;;;;;12.00;99.90;;;;;;4966800;28;19932;-76
2022/09/26 02:31:10;;;;;;;;;;;12.00;99.90;;;;;;4967430;28;19930;-78
2022/09/26 02:33:36;;;;;;;;;;;12.00;99.90;;;;;;4966919;28;19926;-76
2022/09/26 02:36:04;;;;;;;;;;;12.00;99.90;;;;;;4967117;28;20400;-77
2022/09/26 02:38:30;;;;;;;;;;;12.00;99.90;;;;;;4967438;28;19926;-81
2022/09/26 02:41:12;;;;;;;;;;;12.00;99.90;;;;;;4967316;28;20389;-78
2022/09/26 02:43:42;;;;;;;;;;;12.00;99.90;;;;;;4966949;28;19996;-77
2022/09/26 02:46:10;;;;;;;;;;;12.00;99.90;;;;;;4967155;28;19926;-77
2022/09/26 02:48:36;;;;;;;;;;;12.00;99.90;;;;;;4966281;28;19980;-77
2022/09/26 02:51:13;;;;;;;;;;;12.00;99.90;;;;;;4981892;28;19926;-76
2022/09/26 02:53:57;;;;;;;;;;;12.00;99.90;;;;;;4966717;28;19969;-80
2022/09/26 02:56:22;;;;;;;;;;;12.00;99.90;;;;;;4966925;28;19988;-77
2022/09/26 02:59:00;;;;;;;;;;;12.00;99.90;;;;;;4966714;28;20384;-76
2022/09/26 03:01:30;;;;;;;;;;;12.00;99.90;;;;;;4981896;28;19926;-78
2022/09/26 03:04:01;;;;;;;;;;;12.00;99.90;;;;;;4966506;28;20402;-77
2022/09/26 03:06:31;;;;;;;;;;;12.00;99.90;;;;;;4967455;28;19926;-77
2022/09/26 03:08:57;;;;;;;;;;;12.00;99.90;;;;;;4966884;28;19922;-78
2022/09/26 03:11:24;;;;;;;;;;;12.10;99.90;;;;;;4965718;28;19933;-76
2022/09/26 03:13:50;;;;;;;;;;;12.00;99.90;;;;;;4966680;28;19984;-76
2022/09/26 03:16:16;;;;;;;;;;;12.00;99.90;;;;;;4967088;28;19953;-76
2022/09/26 03:18:48;;;;;;;;;;;12.00;99.90;;;;;;4965961;28;19926;-77
2022/09/26 03:21:14;;;;;;;;;;;12.00;99.90;;;;;;4966499;28;19933;-77
2022/09/26 03:23:40;;;;;;;;;;;12.00;99.90;;;;;;4966796;28;19926;-77
2022/09/26 03:26:18;;;;;;;;;;;12.10;99.90;;;;;;4966946;28;19933;-79
2022/09/26 03:28:44;;;;;;;;;;;12.00;99.90;;;;;;4966808;28;20272;-77
2022/09/26 03:31:10;;;;;;;;;;;12.00;99.90;;;;;;4965809;28;19927;-77
2022/09/26 03:33:35;;;;;;;;;;;12.10;99.90;;;;;;4965369;28;20435;-76
2022/09/26 03:36:08;;;;;;;;;;;12.10;99.90;;;;;;4966609;28;19926;-77
2022/09/26 03:38:34;;;;;;;;;;;12.00;99.90;;;;;;4966520;28;19927;-75
2022/09/26 03:40:59;;;;;;;;;;;12.10;99.90;;;;;;4968948;28;19926;-80
2022/09/26 03:43:25;;;;;;;;;;;12.10;99.90;;;;;;4970699;28;19926;-76
2022/09/26 03:45:51;;;;;;;;;;;12.00;99.90;;;;;;4970340;28;19933;-78
2022/09/26 03:48:16;;;;;;;;;;;12.10;99.90;;;;;;4970124;28;19926;-77
2022/09/26 03:50:42;;;;;;;;;;;12.10;99.90;;;;;;4969253;28;19930;-76
2022/09/26 03:53:08;;;;;;;;;;;12.10;99.90;;;;;;4985045;28;19930;-76
2022/09/26 03:55:33;;;;;;;;;;;12.10;99.90;;;;;;4970168;28;19926;-77
2022/09/26 03:57:59;;;;;;;;;;;12.20;99.90;;;;;;4970912;28;19930;-77
2022/09/26 04:00:24;;;;;;;;;;;12.20;99.90;;;;;;4968724;28;20227;-75
2022/09/26 04:02:50;;;;;;;;;;;12.10;99.90;;;;;;4969738;28;19933;-79
2022/09/26 04:05:15;;;;;;;;;;;12.20;99.90;;;;;;4969037;28;19933;-75
2022/09/26 04:07:43;;;;;;;;;;;12.20;99.90;;;;;;4969729;28;20412;-76
2022/09/26 04:10:10;;;;;;;;;;;12.20;99.90;;;;;;4969874;28;19933;-76
2022/09/26 04:12:35;;;;;;;;;;;12.20;99.90;;;;;;4969862;28;19926;-77
2022/09/26 04:15:01;;;;;;;;;;;12.20;99.90;;;;;;4969341;28;19934;-76
2022/09/26 04:17:28;;;;;;;;;;;12.20;99.90;;;;;;4985146;28;20273;-75
2022/09/26 04:19:53;;;;;;;;;;;12.20;99.90;;;;;;4968422;28;19926;-79
2022/09/26 04:22:19;;;;;;;;;;;12.10;99.90;;;;;;4970009;28;19956;-76
2022/09/26 04:24:44;;;;;;;;;;;12.20;99.90;;;;;;4969503;28;20637;-76
2022/09/26 04:27:10;;;;;;;;;;;12.10;99.90;;;;;;4970079;28;19969;-79
2022/09/26 04:29:35;;;;;;;;;;;12.20;99.90;;;;;;4968945;28;20400;-76
2022/09/26 04:32:00;;;;;;;;;;;12.20;99.90;;;;;;4969652;28;19933;-76
2022/09/26 04:34:26;;;;;;;;;;;12.10;99.90;;;;;;4968777;28;20025;-78
2022/09/26 04:36:52;;;;;;;;;;;12.10;99.90;;;;;;4968896;28;19934;-76
2022/09/26 04:39:18;;;;;;;;;;;12.10;99.90;;;;;;4967956;28;19929;-76
2022/09/26 04:41:43;;;;;;;;;;;12.00;99.90;;;;;;4969215;28;20377;-78
2022/09/26 04:44:09;;;;;;;;;;;12.00;99.90;;;;;;4968819;28;19932;-77
2022/09/26 04:46:35;;;;;;;;;;;12.00;99.90;;;;;;4968914;28;19922;-76
2022/09/26 04:49:00;;;;;;;;;;;12.10;99.90;;;;;;4968190;28;19930;-78
2022/09/26 04:51:27;;;;;;;;;;;12.00;99.90;;;;;;4968258;28;20392;-76
2022/09/26 04:53:52;;;;;;;;;;;12.10;99.90;;;;;;4967346;28;19926;-77
2022/09/26 04:56:19;;;;;;;;;;;12.10;99.90;;;;;;4968654;28;19992;-78
2022/09/26 04:58:45;;;;;;;;;;;12.10;99.90;;;;;;4969181;28;19922;-77
2022/09/26 05:01:12;;;;;;;;;;;12.00;99.90;;;;;;4969015;28;19927;-77
2022/09/26 05:03:38;;;;;;;;;;;12.00;99.90;;;;;;4967766;28;19922;-76
2022/09/26 05:06:07;;;;;;;;;;;12.00;99.90;;;;;;4980351;28;19922;-79
2022/09/26 05:08:34;;;;;;;;;;;12.00;99.90;;;;;;4963017;28;20388;-77
2022/09/26 05:11:01;;;;;;;;;;;12.00;99.90;;;;;;4969017;28;19952;-80
2022/09/26 05:13:26;;;;;;;;;;;12.00;99.90;;;;;;4969310;28;20393;-77
2022/09/26 05:15:54;;;;;;;;;;;12.00;99.90;;;;;;4968195;28;19926;-78
2022/09/26 05:18:20;;;;;;;;;;;12.00;99.90;;;;;;4968010;28;20390;-77
2022/09/26 05:20:47;;;;;;;;;;;12.00;99.90;;;;;;4968302;28;19930;-77
2022/09/26 05:23:13;;;;;;;;;;;12.00;99.90;;;;;;4968553;28;19954;-78
2022/09/26 05:28:40;;;;;;;;;;;12.00;99.90;;;;;;5004629;28;19925;-77
2022/09/26 05:31:07;;;;;;;;;;;12.10;99.90;;;;;;4961071;28;20009;-78
2022/09/26 05:33:32;;;;;;;;;;;12.00;99.90;;;;;;4948240;28;19973;-77
2022/09/26 05:35:58;;;;;;;;;;;12.00;99.90;;;;;;4960406;28;20586;-76
2022/09/26 05:38:23;;;;;;;;;;;12.00;99.90;;;;;;4968278;28;19981;-79
2022/09/26 05:40:58;;;;;;;;;;;12.00;99.90;;;;;;4967593;28;19977;-77
2022/09/26 05:43:25;;;;;;;;;;;12.00;99.90;;;;;;4968423;28;19926;-81
2022/09/26 05:45:54;;;;;;;;;;;12.00;99.90;;;;;;4954333;28;19933;-83
2022/09/26 05:48:20;;;;;;;;;;;12.00;99.90;;;;;;4965066;28;19937;-83
2022/09/26 05:50:45;;;;;;;;;;;12.00;99.90;;;;;;4967695;28;20025;-79
2022/09/26 05:53:11;;;;;;;;;;;12.00;99.90;;;;;;4967058;28;19996;-81
2022/09/26 05:55:36;;;;;;;;;;;12.00;99.90;;;;;;4965404;28;19926;-82
2022/09/26 05:58:04;;;;;;;;;;;12.00;99.90;;;;;;4967506;28;19980;-83
2022/09/26 06:00:29;;;;;;;;;;;12.00;99.90;;;;;;4966323;28;20274;-83
2022/09/26 06:03:00;;;;;;;;;;;12.00;99.90;;;;;;4980248;28;19933;-81
2022/09/26 06:05:25;;;;;;;;;;;12.00;99.90;;;;;;4967171;28;19933;-82
2022/09/26 06:07:51;;;;;;;;;;;12.00;99.90;;;;;;4965032;28;19926;-81
2022/09/26 06:10:18;;;;;;;;;;;12.00;99.90;;;;;;4966969;28;19926;-81
2022/09/26 06:12:43;;;;;;;;;;;11.90;99.90;;;;;;4967383;28;19926;-80
2022/09/26 06:15:09;;;;;;;;;;;12.00;99.90;;;;;;4966904;28;19949;-81
2022/09/26 06:17:35;;;;;;;;;;;12.00;99.90;;;;;;4966922;28;20451;-81
2022/09/26 06:20:01;;;;;;;;;;;11.90;99.90;;;;;;4965115;28;19944;-82
2022/09/26 06:22:27;;;;;;;;;;;12.00;99.90;;;;;;4967224;28;19927;-80
2022/09/26 06:24:53;;;;;;;;;;;12.00;99.90;;;;;;4965130;28;19926;-81
2022/09/26 06:27:19;;;;;;;;;;;11.90;99.90;;;;;;4966882;28;19928;-81
2022/09/26 06:29:44;;;;;;;;;;;12.00;99.90;;;;;;4966712;28;19933;-81
2022/09/26 06:32:10;;;;;;;;;;;12.00;99.90;;;;;;4966902;28;19922;-81
2022/09/26 06:34:35;;;;;;;;;;;12.00;99.90;;;;;;4965048;28;20273;-81
2022/09/26 06:37:00;;;;;;;;;;;12.00;99.90;;;;;;4966300;28;19926;-81
2022/09/26 06:39:34;;;;;;;;;;;12.00;99.90;;;;;;4966055;28;20329;-81
2022/09/26 06:42:04;;;;;;;;;;;12.00;99.90;;;;;;4967052;28;19930;-83
2022/09/26 06:44:30;;;;;;;;;;;12.00;99.90;;;;;;4967028;28;20325;-82
2022/09/26 06:46:56;;;;;;;;;;;12.00;99.90;;;;;;4950274;28;19932;-81
2022/09/26 06:49:22;;;;;;;;;;;12.00;99.90;;;;;;4965931;28;20017;-81
2022/09/26 06:51:47;;;;;;;;;;;12.00;99.90;;;;;;4966907;28;20012;-81
2022/09/26 06:54:13;;;;;;;;;;;12.00;99.90;;;;;;4966354;28;20506;-80
2022/09/26 06:56:39;;;;;;;;;;;12.00;99.90;;;;;;4966744;28;19993;-81
2022/09/26 06:59:04;;;;;;;;;;;11.90;99.90;;;;;;4949808;28;20265;-81
2022/09/26 07:01:30;;;;;;;;;;;12.00;99.90;;;;;;4966513;28;20210;-81
2022/09/26 07:03:55;;;;;;;;;;;12.00;99.90;;;;;;4964956;28;19957;-82
2022/09/26 07:06:21;;;;;;;;;;;12.10;99.90;;;;;;4966946;28;19926;-81
2022/09/26 07:08:46;;;;;;;;;;;12.00;99.90;;;;;;4964508;28;20001;-82
2022/09/26 07:11:12;;;;;;;;;;;12.00;99.90;;;;;;4966478;28;20262;-82
2022/09/26 07:13:38;;;;;;;;;;;12.00;99.90;;;;;;4966540;28;20344;-81
2022/09/26 07:16:04;;;;;;;;;;;12.00;99.90;;;;;;4966426;28;20645;-81
2022/09/26 07:18:29;;;;;;;;;;;12.10;99.90;;;;;;4965552;28;19926;-82
2022/09/26 07:20:55;;;;;;;;;;;12.00;99.90;;;;;;4966248;28;20285;-79
2022/09/26 07:23:22;;;;;;;;;;;12.00;99.90;;;;;;4965901;28;19926;-78
2022/09/26 07:25:48;;;;;;;;;;;12.10;99.90;;;;;;4966162;28;20058;-79
2022/09/26 07:28:13;;;;;;;;;;;12.00;99.90;;;;;;4966962;28;19974;-79
2022/09/26 07:30:39;;;;;;;;;;;12.00;99.90;;;;;;4964612;28;19984;-81
2022/09/26 07:33:04;;;;;;;;;;;12.00;99.90;;;;;;4967747;28;19976;-80
2022/09/26 07:35:30;;;;;;;;;;;12.10;99.90;;;;;;4966319;28;19935;-81
2022/09/26 07:37:57;;;;;;;;;;;12.10;99.90;;;;;;4965595;28;19961;-81
2022/09/26 07:40:22;;;;;;;;;;;12.00;99.90;;;;;;4964490;28;20390;-80
2022/09/26 07:42:48;;;;;;;;;;;12.10;99.90;;;;;;4964680;28;19930;-79
2022/09/26 07:45:14;;;;;;;;;;;12.10;99.90;;;;;;4964799;28;19922;-78
2022/09/26 07:50:23;;;;;;;;;;;12.20;99.90;;;;;;4964386;28;19933;-78
2022/09/26 07:52:49;;;;;;;;;;;12.20;99.90;;;;;;4965931;28;19926;-80
2022/09/26 07:55:17;;;;;;;;;;;12.20;99.90;;;;;;4968500;28;19934;-78
2022/09/26 07:57:42;;;;;;;;;;;12.20;99.90;;;;;;4961710;28;19961;-79
2022/09/26 08:00:12;;;;;;;;;;;12.20;99.90;;;;;;4973457;28;20393;-79
2022/09/26 08:02:41;;;;;;;;;;;12.30;99.90;;;;;;4944572;28;20377;-79
2022/09/26 08:05:08;;;;;;;;;;;12.30;99.90;;;;;;4964279;28;19930;-79
2022/09/26 08:07:36;;;;;;;;;;;12.30;99.90;;;;;;4963555;28;19933;-84
2022/09/26 08:10:06;;;;;;;;;;;12.30;99.90;;;;;;4960435;28;19926;-81
2022/09/26 08:12:35;;;;;;;;;;;12.40;99.90;;;;;;4963133;28;19926;-80
2022/09/26 08:15:01;;;;;;;;;;;12.40;99.90;;;;;;4961090;28;19934;-80
2022/09/26 08:17:32;;;;;;;;;;;12.40;99.90;;;;;;4953628;28;19952;-79
2022/09/26 08:19:58;;;;;;;;;;;12.40;99.90;;;;;;4946397;28;20424;-78
2022/09/26 08:22:24;;;;;;;;;;;12.50;99.90;;;;;;4947224;28;19977;-80
2022/09/26 08:24:49;;;;;;;;;;;12.50;99.90;;;;;;4946947;28;19934;-80
2022/09/26 08:27:16;;;;;;;;;;;12.50;99.90;;;;;;4950032;28;20344;-81
2022/09/26 08:29:41;;;;;;;;;;;12.50;99.90;;;;;;4951764;28;19934;-80
2022/09/26 08:32:07;;;;;;;;;;;12.50;99.90;;;;;;4950312;28;19941;-81
2022/09/26 08:34:34;;;;;;;;;;;12.50;99.90;;;;;;4949764;28;20408;-80
2022/09/26 08:36:59;;;;;;;;;;;12.50;99.90;;;;;;4951504;28;19969;-82
2022/09/26 08:39:25;;;;;;;;;;;12.60;99.90;;;;;;4959629;28;19969;-80
2022/09/26 08:42:04;;;;;;;;;;;12.60;99.90;;;;;;4952258;28;19934;-79
2022/09/26 08:44:34;;;;;;;;;;;12.60;99.90;;;;;;4952563;28;19934;-82
2022/09/26 08:47:00;;;;;;;;;;;12.60;99.90;;;;;;4951006;28;19930;-81
2022/09/26 08:49:34;;;;;;;;;;;12.60;99.90;;;;;;4952011;28;20913;-80
2022/09/26 08:52:04;;;;;;;;;;;12.60;99.90;;;;;;4953023;28;19938;-81
2022/09/26 08:54:38;;;;;;;;;;;12.50;99.90;;;;;;4967879;28;20002;-82
2022/09/26 08:57:06;;;;;;;;;;;12.50;99.90;;;;;;4959952;28;20029;-79
2022/09/26 08:59:42;;;;;;;;;;;12.40;99.90;;;;;;4956151;28;20032;-82
2022/09/26 09:02:17;;;;;;;;;;;12.40;99.90;;;;;;4951749;28;20187;-80
2022/09/26 09:04:45;;;;;;;;;;;12.40;99.90;;;;;;4952438;28;20427;-80
2022/09/26 09:07:21;;;;;;;;;;;12.40;99.90;;;;;;4951529;28;20461;-82
2022/09/26 09:09:47;;;;;;;;;;;12.30;99.90;;;;;;4951850;28;19949;-80
2022/09/26 09:12:16;;;;;;;;;;;12.30;99.90;;;;;;4950500;28;19934;-80
2022/09/26 09:14:51;;;;;;;;;;;12.30;99.90;;;;;;4961489;28;19942;-79
2022/09/26 09:17:19;;;;;;;;;;;12.30;99.90;;;;;;4955626;28;19962;-81
2022/09/26 09:20:20;;;;;;;;;;;12.30;99.90;;;;;;4950428;28;19926;-80
2022/09/26 09:22:56;;;;;;;;;;;12.20;99.90;;;;;;4949770;28;19934;-79
2022/09/26 09:25:31;;;;;;;;;;;12.30;99.90;;;;;;4962235;28;19941;-81
2022/09/26 09:28:16;;;;;;;;;;;12.20;99.90;;;;;;4964180;28;19926;-78
2022/09/26 09:30:44;;;;;;;;;;;12.30;99.90;;;;;;4968150;28;19930;-79
2022/09/26 09:33:19;;;;;;;;;;;12.20;99.90;;;;;;4966565;28;19926;-79
2022/09/26 09:35:51;;;;;;;;;;;12.30;99.90;;;;;;4967297;28;20054;-79
2022/09/26 09:38:19;;;;;;;;;;;12.30;99.90;;;;;;4966701;28;19926;-79
2022/09/26 09:40:56;;;;;;;;;;;12.30;99.90;;;;;;4967268;28;19922;-78
2022/09/26 09:43:25;;;;;;;;;;;12.30;99.90;;;;;;4967372;28;19933;-79
2022/09/26 09:45:52;;;;;;;;;;;12.30;99.90;;;;;;4967135;28;20012;-79
2022/09/26 09:48:18;;;;;;;;;;;12.30;99.90;;;;;;4957864;28;19934;-81
2022/09/26 09:51:02;;;;;;;;;;;12.30;99.90;;;;;;4958674;28;20266;-76
2022/09/26 09:53:46;;;;;;;;;;;12.30;99.90;;;;;;4967895;28;19926;-79
2022/09/26 09:56:11;;;;;;;;;;;12.30;99.90;;;;;;4967567;28;19926;-78
2022/09/26 09:58:43;;;;;;;;;;;12.30;99.90;;;;;;4966695;28;20290;-81
2022/09/26 10:01:24;;;;;;;;;;;12.30;99.90;;;;;;4967294;28;20381;-80
2022/09/26 10:03:54;;;;;;;;;;;12.30;99.90;;;;;;4966654;28;20610;-77
2022/09/26 10:06:21;;;;;;;;;;;12.30;99.90;;;;;;4982593;28;20029;-77
2022/09/26 10:08:49;;;;;;;;;;;12.30;99.90;;;;;;4966743;28;19926;-77
2022/09/26 10:11:40;;;;;;;;;;;12.30;99.90;;;;;;4964377;28;19926;-78
2022/09/26 10:14:11;;;;;;;;;;;12.30;99.90;;;;;;4966658;28;19940;-78
2022/09/26 10:16:56;;;;;;;;;;;12.30;99.90;;;;;;4967515;28;19952;-81
2022/09/26 10:19:32;;;;;;;;;;;12.30;99.90;;;;;;4965903;28;19933;-78
2022/09/26 10:21:58;;;;;;;;;;;12.20;99.90;;;;;;4967736;28;20468;-80
2022/09/26 10:24:33;;;;;;;;;;;12.20;99.90;;;;;;4966627;28;20025;-80
2022/09/26 10:27:22;;;;;;;;;;;12.10;99.90;;;;;;4968630;28;20012;-79
2022/09/26 10:30:10;;;;;;;;;;;12.20;99.90;;;;;;4966593;28;19933;-78
2022/09/26 10:32:44;;;;;;;;;;;12.10;99.90;;;;;;4965098;28;19927;-80
2022/09/26 10:35:18;;;;;;;;;;;12.10;99.90;;;;;;4966720;28;20202;-82
2022/09/26 10:38:00;;;;;;;;;;;12.10;99.90;;;;;;4967735;28;19962;-80
2022/09/26 10:40:47;;;;;;;;;;;12.10;99.90;;;;;;4967353;28;20017;-78
2022/09/26 10:43:20;;;;;;;;;;;12.10;99.90;;;;;;4966530;28;20367;-79
2022/09/26 10:45:53;;;;;;;;;;;12.20;99.90;;;;;;4966833;28;19922;-81
2022/09/26 10:48:20;;;;;;;;;;;12.10;99.90;;;;;;4966839;28;20403;-81
2022/09/26 10:50:54;;;;;;;;;;;12.20;99.90;;;;;;4966814;28;20024;-81
2022/09/26 10:53:21;;;;;;;;;;;12.20;99.90;;;;;;4966861;28;19953;-80
2022/09/26 10:55:57;;;;;;;;;;;12.20;99.90;;;;;;4966259;28;19926;-78
2022/09/26 10:58:28;;;;;;;;;;;12.20;99.90;;;;;;4966325;28;19941;-77
2022/09/26 11:00:56;;;;;;;;;;;12.30;99.90;;;;;;4966715;28;19989;-80
2022/09/26 11:03:41;;;;;;;;;;;12.30;99.90;;;;;;4965540;28;20024;-77
2022/09/26 11:06:20;;;;;;;;;;;12.30;99.90;;;;;;4961987;28;19934;-77
2022/09/26 11:08:49;;;;;;;;;;;12.30;99.90;;;;;;4947392;28;19934;-76
2022/09/26 11:11:16;;;;;;;;;;;12.40;99.90;;;;;;4958042;28;19973;-79
2022/09/26 11:13:48;;;;;;;;;;;12.40;99.90;;;;;;4965863;28;20017;-78
2022/09/26 11:16:27;;;;;;;;;;;12.40;99.90;;;;;;4966188;28;19928;-83
2022/09/26 11:18:57;;;;;;;;;;;12.40;99.90;;;;;;4965471;28;20448;-80
2022/09/26 11:21:33;;;;;;;;;;;12.40;99.90;;;;;;4966986;28;19926;-78
2022/09/26 11:24:02;;;;;;;;;;;12.40;99.90;;;;;;4965807;28;19927;-79
2022/09/26 11:26:33;;;;;;;;;;;12.50;99.90;;;;;;4965642;28;19930;-77
2022/09/26 11:29:08;;;;;;;;;;;12.50;99.90;;;;;;4965297;28;19927;-79
2022/09/26 11:31:36;;;;;;;;;;;12.50;99.90;;;;;;4966084;28;19927;-78
2022/09/26 11:34:02;;;;;;;;;;;12.60;99.90;;;;;;4963566;28;19937;-77
2022/09/26 11:36:35;;;;;;;;;;;12.50;99.90;;;;;;4966586;28;19980;-78
2022/09/26 11:39:10;;;;;;;;;;;12.70;99.90;;;;;;4965070;28;19926;-78
2022/09/26 11:41:36;;;;;;;;;;;12.70;99.90;;;;;;4966064;28;19926;-78
2022/09/26 11:44:19;;;;;;;;;;;12.80;99.90;;;;;;4964729;28;19926;-78
2022/09/26 11:46:47;;;;;;;;;;;12.80;99.90;;;;;;4965101;28;19930;-78
2022/09/26 11:49:16;;;;;;;;;;;12.80;99.90;;;;;;4964866;28;19926;-78
2022/09/26 11:51:54;;;;;;;;;;;12.80;99.90;;;;;;4965395;28;20014;-79
2022/09/26 11:54:32;;;;;;;;;;;12.90;99.90;;;;;;4972449;28;19978;-77
2022/09/26 11:57:27;;;;;;;;;;;12.90;99.90;;;;;;4964638;28;20400;-79
2022/09/26 12:00:00;;;;;;;;;;;13.00;99.90;;;;;;4966545;28;19926;-78
2022/09/26 12:02:27;;;;;;;;;;;13.10;99.90;;;;;;4967497;28;19930;-80
2022/09/26 12:04:59;;;;;;;;;;;13.20;99.90;;;;;;4964640;28;19942;-79
2022/09/26 12:07:45;;;;;;;;;;;13.20;99.90;;;;;;4968181;28;19930;-78
2022/09/26 12:10:10;;;;;;;;;;;13.30;99.90;;;;;;4966059;28;20046;-79
2022/09/26 12:12:56;;;;;;;;;;;13.30;99.90;;;;;;4967398;28;19926;-80
2022/09/26 12:15:37;;;;;;;;;;;13.40;99.90;;;;;;4968609;28;19926;-78
2022/09/26 12:18:26;;;;;;;;;;;13.50;99.90;;;;;;4982987;28;19975;-79
2022/09/26 12:21:12;;;;;;;;;;;13.50;99.90;;;;;;4964265;28;19926;-78
2022/09/26 12:23:47;;;;;;;;;;;13.40;99.90;;;;;;4967709;28;19930;-79
2022/09/26 12:26:24;;;;;;;;;;;13.50;99.90;;;;;;4950332;28;19934;-79
2022/09/26 12:29:08;;;;;;;;;;;13.50;99.90;;;;;;4958618;28;19930;-78
2022/09/26 12:31:34;;;;;;;;;;;13.50;99.90;;;;;;4966863;28;20025;-79
2022/09/26 12:34:13;;;;;;;;;;;13.50;99.90;;;;;;4968708;28;20012;-81
2022/09/26 12:36:47;;;;;;;;;;;13.50;99.90;;;;;;4968807;28;19934;-79
2022/09/26 12:39:31;;;;;;;;;;;13.50;99.90;;;;;;4968724;28;19933;-80
2022/09/26 12:42:21;;;;;;;;;;;13.50;99.90;;;;;;4964368;28;19926;-81
2022/09/26 12:44:49;;;;;;;;;;;13.50;99.90;;;;;;4969013;28;20028;-81
2022/09/26 12:47:17;;;;;;;;;;;13.60;99.90;;;;;;4968200;28;19926;-80
2022/09/26 12:49:46;;;;;;;;;;;13.60;99.90;;;;;;4956293;28;19957;-79
2022/09/26 12:52:30;;;;;;;;;;;13.60;99.90;;;;;;4969161;28;19926;-79
2022/09/26 12:55:02;;;;;;;;;;;13.70;99.90;;;;;;4969879;28;19930;-80
2022/09/26 12:57:30;;;;;;;;;;;13.70;99.90;;;;;;4969593;28;19926;-79
2022/09/26 13:00:15;;;;;;;;;;;13.80;99.90;;;;;;4948924;29;19922;-81
2022/09/26 13:03:02;;;;;;;;;;;13.80;99.90;;;;;;4965470;28;19925;-80
2022/09/26 13:05:29;;;;;;;;;;;13.80;99.90;;;;;;4968884;28;19926;-78
2022/09/26 13:08:01;;;;;;;;;;;13.80;99.90;;;;;;4968373;28;19922;-79
2022/09/26 13:10:46;;;;;;;;;;;13.80;99.90;;;;;;4968755;28;20312;-79
2022/09/26 13:13:31;;;;;;;;;;;13.90;99.90;;;;;;4983636;28;19926;-80
2022/09/26 13:16:03;;;;;;;;;;;13.90;99.90;;;;;;4969148;28;19933;-80
2022/09/26 13:18:36;;;;;;;;;;;14.00;99.90;;;;;;4968052;28;20320;-79
2022/09/26 13:21:06;;;;;;;;;;;14.00;99.90;;;;;;4969154;28;20024;-80
2022/09/26 13:23:52;;;;;;;;;;;14.00;99.90;;;;;;4983692;28;19926;-79
2022/09/26 13:26:18;;;;;;;;;;;14.00;99.90;;;;;;4962606;28;19936;-80
2022/09/26 13:28:46;;;;;;;;;;;14.00;99.90;;;;;;4978074;28;19933;-79
2022/09/26 13:31:15;;;;;;;;;;;14.00;99.90;;;;;;4968475;28;19930;-79
2022/09/26 13:34:02;;;;;;;;;;;14.10;99.90;;;;;;4965490;28;19926;-80
2022/09/26 13:36:30;;;;;;;;;;;14.10;99.90;;;;;;4970796;28;19933;-78
2022/09/26 13:39:02;;;;;;;;;;;14.00;99.90;;;;;;4968505;28;19961;-79
2022/09/26 13:41:42;;;;;;;;;;;14.10;99.90;;;;;;4963269;28;19926;-79
2022/09/26 13:44:08;;;;;;;;;;;14.10;99.90;;;;;;4966091;28;19930;-79
2022/09/26 13:46:44;;;;;;;;;;;14.10;99.90;;;;;;4967290;28;19934;-79
2022/09/26 13:49:16;;;;;;;;;;;14.10;99.90;;;;;;4967066;28;19927;-79
2022/09/26 13:51:47;;;;;;;;;;;14.10;99.90;;;;;;4967497;28;20703;-78
2022/09/26 13:54:15;;;;;;;;;;;14.10;99.90;;;;;;4967945;28;19926;-80
2022/09/26 13:56:48;;;;;;;;;;;14.10;99.90;;;;;;4967605;28;19926;-80
2022/09/26 13:59:14;;;;;;;;;;;14.20;99.90;;;;;;4966403;28;19926;-79
2022/09/26 14:01:58;;;;;;;;;;;14.20;99.90;;;;;;4967143;28;19926;-80
2022/09/26 14:04:34;;;;;;;;;;;14.20;99.90;;;;;;4967319;28;19926;-79
2022/09/26 14:09:22;;;;;;;;;;;14.30;99.90;;;;;;4982877;28;20021;-80
2022/09/26 14:10:00;;;;;;;;;;;14.30;99.90;;;;;;4966968;28;19973;-80
2022/09/26 14:12:46;;;;;;;;;;;14.40;99.90;;;;;;4965724;28;20630;-79
2022/09/26 14:15:21;;;;;;;;;;;14.30;99.90;;;;;;4961907;28;19926;-80
2022/09/26 14:17:47;;;;;;;;;;;14.50;99.90;;;;;;4968488;28;20388;-80
2022/09/26 14:20:22;;;;;;;;;;;14.50;99.90;;;;;;4964679;28;19932;-80
2022/09/26 14:22:49;;;;;;;;;;;14.40;99.90;;;;;;4966511;28;19933;-82
2022/09/26 14:25:33;;;;;;;;;;;14.00;99.90;;;;;;4966721;28;20221;-80
2022/09/26 14:28:11;;;;;;;;;;;13.70;99.90;;;;;;4965953;28;20304;-80
2022/09/26 14:30:36;;;;;;;;;;;13.50;99.90;;;;;;4962648;28;19926;-80
2022/09/26 14:33:05;;;;;;;;;;;13.30;99.90;;;;;;4966377;28;19932;-81
2022/09/26 14:35:33;;;;;;;;;;;13.30;99.90;;;;;;4964635;28;20008;-81
2022/09/26 14:38:00;;;;;;;;;;;13.20;99.90;;;;;;4966824;28;19926;-81
2022/09/26 14:40:26;;;;;;;;;;;13.20;99.90;;;;;;4965749;28;19922;-81
2022/09/26 14:42:54;;;;;;;;;;;13.10;99.90;;;;;;4964964;28;19941;-81